sensor_id;sensor_type;location;lat;lon;timestamp;P1;durP1;ratioP1;P2;durP2;ratioP2
11731;SDS011;5922;53.734;10.258;2023-06-19T00:00:45;6.80;;;6.10;;
11731;SDS011;5922;53.734;10.258;2023-06-19T00:03:12;6.63;;;6.03;;
11731;SDS011;5922;53.734;10.258;2023-06-19T00:05:41;9.63;;;6.40;;
11731;SDS011;5922;53.734;10.258;2023-06-19T00:08:11;7.70;;;6.17;;
11731;SDS011;5922;53.734;10.258;2023-06-19T00:10:38;6.97;;;5.97;;
11731;SDS011;5922;53.734;10.258;2023-06-19T00:13:05;9.63;;;6.80;;
11731;SDS011;5922;53.734;10.258;2023-06-19T00:15:33;7.10;;;6.40;;
11731;SDS011;5922;53.734;10.258;2023-06-19T00:18:00;7.43;;;6.27;;
11731;SDS011;5922;53.734;10.258;2023-06-19T00:20:29;8.07;;;6.37;;
11731;SDS011;5922;53.734;10.258;2023-06-19T00:22:58;7.63;;;6.47;;
11731;SDS011;5922;53.734;10.258;2023-06-19T00:25:27;7.97;;;6.60;;
11731;SDS011;5922;53.734;10.258;2023-06-19T00:27:54;7.97;;;6.17;;
11731;SDS011;5922;53.734;10.258;2023-06-19T00:30:21;7.83;;;7.07;;
11731;SDS011;5922;53.734;10.258;2023-06-19T00:32:49;6.50;;;5.87;;
11731;SDS011;5922;53.734;10.258;2023-06-19T00:35:18;7.63;;;5.97;;
11731;SDS011;5922;53.734;10.258;2023-06-19T00:37:47;7.80;;;6.10;;
11731;SDS011;5922;53.734;10.258;2023-06-19T00:52:16;6.80;;;6.10;;
11731;SDS011;5922;53.734;10.258;2023-06-19T00:54:44;8.07;;;6.23;;
11731;SDS011;5922;53.734;10.258;2023-06-19T01:15:10;7.77;;;6.97;;
11731;SDS011;5922;53.734;10.258;2023-06-19T01:17:37;7.43;;;6.53;;
11731;SDS011;5922;53.734;10.258;2023-06-19T01:20:05;8.93;;;7.03;;
11731;SDS011;5922;53.734;10.258;2023-06-19T01:22:37;7.70;;;6.90;;
11731;SDS011;5922;53.734;10.258;2023-06-19T01:25:05;10.83;;;6.97;;
11731;SDS011;5922;53.734;10.258;2023-06-19T01:27:32;7.27;;;6.57;;
11731;SDS011;5922;53.734;10.258;2023-06-19T01:30:00;7.93;;;7.17;;
11731;SDS011;5922;53.734;10.258;2023-06-19T01:32:31;7.77;;;6.97;;
11731;SDS011;5922;53.734;10.258;2023-06-19T01:34:58;8.13;;;6.90;;
11731;SDS011;5922;53.734;10.258;2023-06-19T01:37:27;9.70;;;7.10;;
11731;SDS011;5922;53.734;10.258;2023-06-19T01:39:59;8.20;;;7.40;;
11731;SDS011;5922;53.734;10.258;2023-06-19T01:42:29;6.73;;;6.13;;
11731;SDS011;5922;53.734;10.258;2023-06-19T01:44:56;7.60;;;6.90;;
11731;SDS011;5922;53.734;10.258;2023-06-19T01:47:25;7.30;;;6.60;;
11731;SDS011;5922;53.734;10.258;2023-06-19T01:49:52;8.07;;;7.27;;
11731;SDS011;5922;53.734;10.258;2023-06-19T01:52:19;7.47;;;6.50;;
11731;SDS011;5922;53.734;10.258;2023-06-19T01:54:46;9.33;;;7.50;;
11731;SDS011;5922;53.734;10.258;2023-06-19T01:57:15;7.60;;;6.80;;
11731;SDS011;5922;53.734;10.258;2023-06-19T01:59:43;7.00;;;6.40;;
11731;SDS011;5922;53.734;10.258;2023-06-19T02:02:10;7.57;;;6.87;;
11731;SDS011;5922;53.734;10.258;2023-06-19T02:04:37;7.47;;;6.77;;
11731;SDS011;5922;53.734;10.258;2023-06-19T02:07:05;7.50;;;6.77;;
11731;SDS011;5922;53.734;10.258;2023-06-19T02:09:32;7.40;;;6.70;;
11731;SDS011;5922;53.734;10.258;2023-06-19T02:11:59;9.33;;;7.30;;
11731;SDS011;5922;53.734;10.258;2023-06-19T02:14:28;8.63;;;6.60;;
11731;SDS011;5922;53.734;10.258;2023-06-19T02:16:55;11.40;;;7.00;;
11731;SDS011;5922;53.734;10.258;2023-06-19T02:19:22;8.20;;;7.03;;
11731;SDS011;5922;53.734;10.258;2023-06-19T02:21:49;9.33;;;6.70;;
11731;SDS011;5922;53.734;10.258;2023-06-19T02:24:16;7.93;;;7.03;;
11731;SDS011;5922;53.734;10.258;2023-06-19T02:26:43;7.43;;;6.23;;
11731;SDS011;5922;53.734;10.258;2023-06-19T02:29:11;7.57;;;6.87;;
11731;SDS011;5922;53.734;10.258;2023-06-19T02:31:39;8.20;;;6.37;;
11731;SDS011;5922;53.734;10.258;2023-06-19T02:34:07;7.93;;;6.63;;
11731;SDS011;5922;53.734;10.258;2023-06-19T02:36:35;6.87;;;6.27;;
11731;SDS011;5922;53.734;10.258;2023-06-19T02:39:03;7.20;;;6.60;;
11731;SDS011;5922;53.734;10.258;2023-06-19T02:41:30;7.40;;;6.70;;
11731;SDS011;5922;53.734;10.258;2023-06-19T02:43:58;7.90;;;6.87;;
11731;SDS011;5922;53.734;10.258;2023-06-19T02:46:25;7.97;;;7.17;;
11731;SDS011;5922;53.734;10.258;2023-06-19T02:48:54;6.60;;;6.00;;
11731;SDS011;5922;53.734;10.258;2023-06-19T02:51:21;7.70;;;6.80;;
11731;SDS011;5922;53.734;10.258;2023-06-19T02:53:48;9.50;;;6.73;;
11731;SDS011;5922;53.734;10.258;2023-06-19T02:56:15;8.17;;;6.73;;
11731;SDS011;5922;53.734;10.258;2023-06-19T02:58:43;6.87;;;6.10;;
11731;SDS011;5922;53.734;10.258;2023-06-19T03:01:10;8.63;;;6.50;;
11731;SDS011;5922;53.734;10.258;2023-06-19T03:03:37;7.10;;;6.40;;
11731;SDS011;5922;53.734;10.258;2023-06-19T03:06:07;11.77;;;7.03;;
11731;SDS011;5922;53.734;10.258;2023-06-19T03:08:35;10.40;;;7.00;;
11731;SDS011;5922;53.734;10.258;2023-06-19T03:11:02;7.00;;;6.10;;
11731;SDS011;5922;53.734;10.258;2023-06-19T03:13:32;8.30;;;6.97;;
11731;SDS011;5922;53.734;10.258;2023-06-19T03:15:59;10.17;;;7.17;;
11731;SDS011;5922;53.734;10.258;2023-06-19T03:18:26;9.53;;;6.83;;
11731;SDS011;5922;53.734;10.258;2023-06-19T03:20:53;7.50;;;6.80;;
11731;SDS011;5922;53.734;10.258;2023-06-19T03:23:22;9.73;;;7.07;;
11731;SDS011;5922;53.734;10.258;2023-06-19T03:25:49;7.90;;;6.50;;
11731;SDS011;5922;53.734;10.258;2023-06-19T03:28:16;7.70;;;6.53;;
11731;SDS011;5922;53.734;10.258;2023-06-19T03:30:45;7.37;;;6.67;;
11731;SDS011;5922;53.734;10.258;2023-06-19T03:33:12;8.80;;;7.20;;
11731;SDS011;5922;53.734;10.258;2023-06-19T03:35:39;7.67;;;6.63;;
11731;SDS011;5922;53.734;10.258;2023-06-19T03:38:07;8.60;;;7.13;;
11731;SDS011;5922;53.734;10.258;2023-06-19T03:40:35;10.07;;;6.50;;
11731;SDS011;5922;53.734;10.258;2023-06-19T03:43:03;8.50;;;6.60;;
11731;SDS011;5922;53.734;10.258;2023-06-19T03:45:30;8.03;;;6.97;;
11731;SDS011;5922;53.734;10.258;2023-06-19T03:47:57;8.50;;;6.80;;
11731;SDS011;5922;53.734;10.258;2023-06-19T03:50:24;7.97;;;6.60;;
11731;SDS011;5922;53.734;10.258;2023-06-19T03:52:52;7.83;;;7.10;;
11731;SDS011;5922;53.734;10.258;2023-06-19T03:55:19;6.83;;;6.20;;
11731;SDS011;5922;53.734;10.258;2023-06-19T03:57:48;7.87;;;7.10;;
11731;SDS011;5922;53.734;10.258;2023-06-19T04:00:15;10.27;;;6.70;;
11731;SDS011;5922;53.734;10.258;2023-06-19T04:02:43;8.50;;;6.47;;
11731;SDS011;5922;53.734;10.258;2023-06-19T04:05:11;7.20;;;6.50;;
11731;SDS011;5922;53.734;10.258;2023-06-19T04:07:38;7.80;;;7.00;;
11731;SDS011;5922;53.734;10.258;2023-06-19T04:10:06;8.50;;;6.33;;
11731;SDS011;5922;53.734;10.258;2023-06-19T04:12:33;7.70;;;7.00;;
11731;SDS011;5922;53.734;10.258;2023-06-19T04:15:02;7.60;;;7.00;;
11731;SDS011;5922;53.734;10.258;2023-06-19T04:17:29;9.20;;;7.17;;
11731;SDS011;5922;53.734;10.258;2023-06-19T04:19:56;10.63;;;7.20;;
11731;SDS011;5922;53.734;10.258;2023-06-19T04:22:23;7.03;;;6.33;;
11731;SDS011;5922;53.734;10.258;2023-06-19T04:24:51;7.70;;;6.80;;
11731;SDS011;5922;53.734;10.258;2023-06-19T04:27:18;8.30;;;7.50;;
11731;SDS011;5922;53.734;10.258;2023-06-19T04:29:45;7.97;;;7.00;;
11731;SDS011;5922;53.734;10.258;2023-06-19T04:32:14;7.63;;;6.93;;
11731;SDS011;5922;53.734;10.258;2023-06-19T04:34:41;7.67;;;6.97;;
11731;SDS011;5922;53.734;10.258;2023-06-19T04:37:11;8.03;;;7.23;;
11731;SDS011;5922;53.734;10.258;2023-06-19T04:39:38;7.67;;;6.87;;
11731;SDS011;5922;53.734;10.258;2023-06-19T04:42:06;7.90;;;7.00;;
11731;SDS011;5922;53.734;10.258;2023-06-19T04:44:38;8.67;;;6.80;;
11731;SDS011;5922;53.734;10.258;2023-06-19T04:47:06;8.30;;;7.07;;
11731;SDS011;5922;53.734;10.258;2023-06-19T04:49:35;8.70;;;7.17;;
11731;SDS011;5922;53.734;10.258;2023-06-19T04:52:02;7.53;;;6.90;;
11731;SDS011;5922;53.734;10.258;2023-06-19T04:54:30;10.13;;;7.27;;
11731;SDS011;5922;53.734;10.258;2023-06-19T04:56:58;7.97;;;7.17;;
11731;SDS011;5922;53.734;10.258;2023-06-19T04:59:25;8.63;;;7.00;;
11731;SDS011;5922;53.734;10.258;2023-06-19T05:01:52;8.93;;;7.53;;
11731;SDS011;5922;53.734;10.258;2023-06-19T05:04:19;7.87;;;7.17;;
11731;SDS011;5922;53.734;10.258;2023-06-19T05:06:49;8.13;;;7.20;;
11731;SDS011;5922;53.734;10.258;2023-06-19T05:09:16;8.40;;;7.30;;
11731;SDS011;5922;53.734;10.258;2023-06-19T05:11:43;8.73;;;7.87;;
11731;SDS011;5922;53.734;10.258;2023-06-19T05:14:10;7.70;;;7.00;;
11731;SDS011;5922;53.734;10.258;2023-06-19T05:16:39;7.90;;;7.20;;
11731;SDS011;5922;53.734;10.258;2023-06-19T05:19:09;8.10;;;7.00;;
11731;SDS011;5922;53.734;10.258;2023-06-19T05:21:36;8.50;;;7.50;;
11731;SDS011;5922;53.734;10.258;2023-06-19T05:24:05;8.57;;;7.77;;
11731;SDS011;5922;53.734;10.258;2023-06-19T05:26:33;8.73;;;7.70;;
11731;SDS011;5922;53.734;10.258;2023-06-19T05:29:00;8.93;;;7.60;;
11731;SDS011;5922;53.734;10.258;2023-06-19T05:31:27;7.87;;;7.10;;
11731;SDS011;5922;53.734;10.258;2023-06-19T05:33:54;8.20;;;7.20;;
11731;SDS011;5922;53.734;10.258;2023-06-19T05:36:23;8.33;;;7.53;;
11731;SDS011;5922;53.734;10.258;2023-06-19T05:38:50;10.13;;;7.83;;
11731;SDS011;5922;53.734;10.258;2023-06-19T05:41:19;8.30;;;7.50;;
11731;SDS011;5922;53.734;10.258;2023-06-19T05:43:46;8.70;;;7.60;;
11731;SDS011;5922;53.734;10.258;2023-06-19T05:46:20;9.43;;;8.10;;
11731;SDS011;5922;53.734;10.258;2023-06-19T05:48:47;10.67;;;7.53;;
11731;SDS011;5922;53.734;10.258;2023-06-19T05:51:14;8.40;;;7.60;;
11731;SDS011;5922;53.734;10.258;2023-06-19T05:53:41;10.23;;;8.20;;
11731;SDS011;5922;53.734;10.258;2023-06-19T05:56:09;8.20;;;7.37;;
11731;SDS011;5922;53.734;10.258;2023-06-19T05:58:43;8.87;;;7.97;;
11731;SDS011;5922;53.734;10.258;2023-06-19T06:01:10;9.77;;;8.77;;
11731;SDS011;5922;53.734;10.258;2023-06-19T06:03:38;10.17;;;8.03;;
11731;SDS011;5922;53.734;10.258;2023-06-19T06:06:05;8.33;;;7.63;;
11731;SDS011;5922;53.734;10.258;2023-06-19T06:08:32;9.80;;;8.27;;
11731;SDS011;5922;53.734;10.258;2023-06-19T06:10:59;9.47;;;8.40;;
11731;SDS011;5922;53.734;10.258;2023-06-19T06:13:27;8.90;;;8.10;;
11731;SDS011;5922;53.734;10.258;2023-06-19T06:15:56;9.23;;;8.37;;
11731;SDS011;5922;53.734;10.258;2023-06-19T06:18:23;9.50;;;7.97;;
11731;SDS011;5922;53.734;10.258;2023-06-19T06:20:53;8.80;;;7.90;;
11731;SDS011;5922;53.734;10.258;2023-06-19T06:23:20;9.23;;;7.77;;
11731;SDS011;5922;53.734;10.258;2023-06-19T06:25:47;8.07;;;7.27;;
11731;SDS011;5922;53.734;10.258;2023-06-19T06:28:14;8.83;;;7.97;;
11731;SDS011;5922;53.734;10.258;2023-06-19T06:30:42;8.67;;;7.87;;
11731;SDS011;5922;53.734;10.258;2023-06-19T06:33:11;8.83;;;7.93;;
11731;SDS011;5922;53.734;10.258;2023-06-19T06:35:38;8.47;;;7.67;;
11731;SDS011;5922;53.734;10.258;2023-06-19T06:38:09;12.07;;;8.17;;
11731;SDS011;5922;53.734;10.258;2023-06-19T06:40:36;10.77;;;8.70;;
11731;SDS011;5922;53.734;10.258;2023-06-19T06:43:03;10.63;;;8.53;;
11731;SDS011;5922;53.734;10.258;2023-06-19T06:45:30;8.80;;;8.03;;
11731;SDS011;5922;53.734;10.258;2023-06-19T06:47:58;9.43;;;8.43;;
11731;SDS011;5922;53.734;10.258;2023-06-19T06:50:26;8.80;;;7.93;;
11731;SDS011;5922;53.734;10.258;2023-06-19T06:52:54;11.03;;;8.57;;
11731;SDS011;5922;53.734;10.258;2023-06-19T06:55:21;9.73;;;8.77;;
11731;SDS011;5922;53.734;10.258;2023-06-19T06:57:48;10.77;;;8.20;;
11731;SDS011;5922;53.734;10.258;2023-06-19T07:00:16;9.60;;;8.67;;
11731;SDS011;5922;53.734;10.258;2023-06-19T07:02:43;10.33;;;8.60;;
11731;SDS011;5922;53.734;10.258;2023-06-19T07:05:13;14.47;;;9.07;;
11731;SDS011;5922;53.734;10.258;2023-06-19T07:07:41;10.00;;;8.97;;
11731;SDS011;5922;53.734;10.258;2023-06-19T07:10:09;9.73;;;8.70;;
11731;SDS011;5922;53.734;10.258;2023-06-19T07:12:43;11.93;;;9.60;;
11731;SDS011;5922;53.734;10.258;2023-06-19T07:15:11;14.13;;;10.07;;
11731;SDS011;5922;53.734;10.258;2023-06-19T07:17:41;12.33;;;9.57;;
11731;SDS011;5922;53.734;10.258;2023-06-19T07:20:08;10.90;;;9.73;;
11731;SDS011;5922;53.734;10.258;2023-06-19T07:22:36;11.33;;;10.17;;
11731;SDS011;5922;53.734;10.258;2023-06-19T07:25:06;10.57;;;9.47;;
11731;SDS011;5922;53.734;10.258;2023-06-19T07:27:33;10.43;;;9.47;;
11731;SDS011;5922;53.734;10.258;2023-06-19T07:30:00;11.37;;;9.27;;
11731;SDS011;5922;53.734;10.258;2023-06-19T07:32:28;12.60;;;9.70;;
11731;SDS011;5922;53.734;10.258;2023-06-19T07:34:55;10.60;;;9.60;;
11731;SDS011;5922;53.734;10.258;2023-06-19T07:37:22;11.37;;;9.93;;
11731;SDS011;5922;53.734;10.258;2023-06-19T07:39:50;11.13;;;9.50;;
11731;SDS011;5922;53.734;10.258;2023-06-19T07:42:19;11.20;;;10.00;;
11731;SDS011;5922;53.734;10.258;2023-06-19T07:44:46;14.40;;;10.27;;
11731;SDS011;5922;53.734;10.258;2023-06-19T07:47:15;11.53;;;9.83;;
11731;SDS011;5922;53.734;10.258;2023-06-19T07:49:43;11.23;;;10.13;;
11731;SDS011;5922;53.734;10.258;2023-06-19T07:52:10;11.40;;;9.80;;
11731;SDS011;5922;53.734;10.258;2023-06-19T07:54:47;10.67;;;9.70;;
11731;SDS011;5922;53.734;10.258;2023-06-19T07:57:14;11.37;;;10.17;;
11731;SDS011;5922;53.734;10.258;2023-06-19T07:59:43;11.23;;;10.13;;
11731;SDS011;5922;53.734;10.258;2023-06-19T08:02:11;18.30;;;10.87;;
11731;SDS011;5922;53.734;10.258;2023-06-19T08:04:46;10.80;;;9.80;;
11731;SDS011;5922;53.734;10.258;2023-06-19T08:07:22;11.80;;;10.23;;
11731;SDS011;5922;53.734;10.258;2023-06-19T08:09:49;13.10;;;9.70;;
11731;SDS011;5922;53.734;10.258;2023-06-19T08:12:16;11.33;;;9.83;;
11731;SDS011;5922;53.734;10.258;2023-06-19T08:14:45;11.80;;;10.20;;
11731;SDS011;5922;53.734;10.258;2023-06-19T08:17:12;11.17;;;9.57;;
11731;SDS011;5922;53.734;10.258;2023-06-19T08:19:40;12.47;;;10.03;;
11731;SDS011;5922;53.734;10.258;2023-06-19T08:22:07;11.83;;;9.97;;
11731;SDS011;5922;53.734;10.258;2023-06-19T08:24:35;11.10;;;10.10;;
11731;SDS011;5922;53.734;10.258;2023-06-19T08:27:04;12.13;;;10.30;;
11731;SDS011;5922;53.734;10.258;2023-06-19T08:29:31;10.27;;;9.30;;
11731;SDS011;5922;53.734;10.258;2023-06-19T08:32:00;11.10;;;10.10;;
11731;SDS011;5922;53.734;10.258;2023-06-19T08:34:30;11.50;;;10.50;;
11731;SDS011;5922;53.734;10.258;2023-06-19T08:36:58;11.33;;;10.23;;
11731;SDS011;5922;53.734;10.258;2023-06-19T08:39:25;11.90;;;10.63;;
11731;SDS011;5922;53.734;10.258;2023-06-19T08:41:52;11.43;;;10.13;;
11731;SDS011;5922;53.734;10.258;2023-06-19T08:44:19;10.93;;;9.83;;
11731;SDS011;5922;53.734;10.258;2023-06-19T08:46:47;11.27;;;10.37;;
11731;SDS011;5922;53.734;10.258;2023-06-19T08:49:15;10.70;;;9.70;;
11731;SDS011;5922;53.734;10.258;2023-06-19T08:51:43;11.43;;;10.30;;
11731;SDS011;5922;53.734;10.258;2023-06-19T08:54:10;11.80;;;10.30;;
11731;SDS011;5922;53.734;10.258;2023-06-19T08:56:38;11.37;;;10.27;;
11731;SDS011;5922;53.734;10.258;2023-06-19T08:59:09;11.30;;;9.97;;
11731;SDS011;5922;53.734;10.258;2023-06-19T09:01:36;19.80;;;10.80;;
11731;SDS011;5922;53.734;10.258;2023-06-19T09:04:10;10.93;;;9.83;;
11731;SDS011;5922;53.734;10.258;2023-06-19T09:06:47;10.70;;;9.60;;
11731;SDS011;5922;53.734;10.258;2023-06-19T09:09:14;13.37;;;10.20;;
11731;SDS011;5922;53.734;10.258;2023-06-19T09:11:41;10.50;;;9.53;;
11731;SDS011;5922;53.734;10.258;2023-06-19T09:14:09;11.27;;;10.07;;
11731;SDS011;5922;53.734;10.258;2023-06-19T09:16:37;13.20;;;9.50;;
11731;SDS011;5922;53.734;10.258;2023-06-19T09:19:05;10.87;;;9.67;;
11731;SDS011;5922;53.734;10.258;2023-06-19T09:21:34;11.17;;;10.17;;
11731;SDS011;5922;53.734;10.258;2023-06-19T09:24:04;10.90;;;9.90;;
11731;SDS011;5922;53.734;10.258;2023-06-19T09:26:34;10.47;;;9.47;;
11731;SDS011;5922;53.734;10.258;2023-06-19T09:29:11;10.57;;;9.53;;
11731;SDS011;5922;53.734;10.258;2023-06-19T09:31:41;10.77;;;9.57;;
11731;SDS011;5922;53.734;10.258;2023-06-19T09:34:08;10.67;;;9.67;;
11731;SDS011;5922;53.734;10.258;2023-06-19T09:36:35;12.40;;;8.80;;
11731;SDS011;5922;53.734;10.258;2023-06-19T09:39:04;10.50;;;9.50;;
11731;SDS011;5922;53.734;10.258;2023-06-19T09:41:32;10.33;;;9.50;;
11731;SDS011;5922;53.734;10.258;2023-06-19T09:44:03;14.17;;;9.90;;
11731;SDS011;5922;53.734;10.258;2023-06-19T09:46:37;10.93;;;9.93;;
11731;SDS011;5922;53.734;10.258;2023-06-19T09:49:06;10.90;;;10.00;;
11731;SDS011;5922;53.734;10.258;2023-06-19T09:51:36;11.53;;;9.60;;
11731;SDS011;5922;53.734;10.258;2023-06-19T09:54:08;10.48;;;9.50;;
11731;SDS011;5922;53.734;10.258;2023-06-19T09:56:36;10.63;;;9.17;;
11731;SDS011;5922;53.734;10.258;2023-06-19T09:59:04;10.25;;;9.07;;
11731;SDS011;5922;53.734;10.258;2023-06-19T10:01:37;10.97;;;9.97;;
11731;SDS011;5922;53.734;10.258;2023-06-19T10:04:05;10.87;;;9.80;;
11731;SDS011;5922;53.734;10.258;2023-06-19T10:06:41;10.15;;;9.35;;
11731;SDS011;5922;53.734;10.258;2023-06-19T10:09:14;10.40;;;9.40;;
11731;SDS011;5922;53.734;10.258;2023-06-19T10:11:44;11.00;;;10.00;;
11731;SDS011;5922;53.734;10.258;2023-06-19T10:14:11;10.60;;;9.70;;
11731;SDS011;5922;53.734;10.258;2023-06-19T10:16:40;11.50;;;9.60;;
11731;SDS011;5922;53.734;10.258;2023-06-19T10:19:11;10.43;;;9.43;;
11731;SDS011;5922;53.734;10.258;2023-06-19T10:21:43;10.70;;;9.63;;
11731;SDS011;5922;53.734;10.258;2023-06-19T10:24:15;10.45;;;9.25;;
11731;SDS011;5922;53.734;10.258;2023-06-19T10:26:44;10.70;;;9.60;;
11731;SDS011;5922;53.734;10.258;2023-06-19T10:29:42;10.35;;;9.45;;
11731;SDS011;5922;53.734;10.258;2023-06-19T10:32:09;10.77;;;9.38;;
11731;SDS011;5922;53.734;10.258;2023-06-19T10:34:36;11.18;;;10.00;;
11731;SDS011;5922;53.734;10.258;2023-06-19T10:37:06;9.77;;;8.90;;
11731;SDS011;5922;53.734;10.258;2023-06-19T10:39:35;11.05;;;9.73;;
11731;SDS011;5922;53.734;10.258;2023-06-19T10:42:05;10.57;;;9.48;;
11731;SDS011;5922;53.734;10.258;2023-06-19T10:44:34;9.75;;;8.85;;
11731;SDS011;5922;53.734;10.258;2023-06-19T10:47:02;10.40;;;9.40;;
11731;SDS011;5922;53.734;10.258;2023-06-19T10:49:30;10.43;;;9.30;;
11731;SDS011;5922;53.734;10.258;2023-06-19T10:52:07;10.10;;;9.05;;
11731;SDS011;5922;53.734;10.258;2023-06-19T10:54:36;9.30;;;8.50;;
11731;SDS011;5922;53.734;10.258;2023-06-19T10:57:03;10.30;;;9.40;;
11731;SDS011;5922;53.734;10.258;2023-06-19T10:59:31;10.10;;;9.10;;
11731;SDS011;5922;53.734;10.258;2023-06-19T11:02:04;9.63;;;8.82;;
11731;SDS011;5922;53.734;10.258;2023-06-19T11:04:32;9.18;;;8.38;;
11731;SDS011;5922;53.734;10.258;2023-06-19T11:07:05;9.63;;;8.48;;
11731;SDS011;5922;53.734;10.258;2023-06-19T11:09:32;10.32;;;8.95;;
11731;SDS011;5922;53.734;10.258;2023-06-19T11:12:01;11.90;;;8.77;;
11731;SDS011;5922;53.734;10.258;2023-06-19T11:14:28;10.80;;;9.68;;
11731;SDS011;5922;53.734;10.258;2023-06-19T11:16:56;10.30;;;8.73;;
11731;SDS011;5922;53.734;10.258;2023-06-19T11:19:24;10.20;;;9.20;;
11731;SDS011;5922;53.734;10.258;2023-06-19T11:21:59;10.43;;;9.52;;
11731;SDS011;5922;53.734;10.258;2023-06-19T11:24:29;10.05;;;9.13;;
11731;SDS011;5922;53.734;10.258;2023-06-19T11:26:57;12.18;;;9.35;;
11731;SDS011;5922;53.734;10.258;2023-06-19T11:29:28;9.90;;;9.00;;
11731;SDS011;5922;53.734;10.258;2023-06-19T11:32:04;10.52;;;9.55;;
11731;SDS011;5922;53.734;10.258;2023-06-19T11:34:32;11.38;;;9.93;;
11731;SDS011;5922;53.734;10.258;2023-06-19T11:37:02;11.10;;;10.05;;
11731;SDS011;5922;53.734;10.258;2023-06-19T11:39:31;10.52;;;9.32;;
11731;SDS011;5922;53.734;10.258;2023-06-19T11:41:58;11.15;;;9.15;;
11731;SDS011;5922;53.734;10.258;2023-06-19T11:44:27;14.90;;;9.65;;
11731;SDS011;5922;53.734;10.258;2023-06-19T11:46:56;11.23;;;9.48;;
11731;SDS011;5922;53.734;10.258;2023-06-19T11:49:24;11.70;;;10.60;;
11731;SDS011;5922;53.734;10.258;2023-06-19T11:51:51;12.50;;;10.13;;
11731;SDS011;5922;53.734;10.258;2023-06-19T11:54:19;12.55;;;10.38;;
11731;SDS011;5922;53.734;10.258;2023-06-19T11:56:47;10.60;;;9.52;;
11731;SDS011;5922;53.734;10.258;2023-06-19T11:59:14;11.52;;;10.45;;
11731;SDS011;5922;53.734;10.258;2023-06-19T12:01:43;11.93;;;10.70;;
11731;SDS011;5922;53.734;10.258;2023-06-19T12:04:13;10.75;;;9.80;;
11731;SDS011;5922;53.734;10.258;2023-06-19T12:06:40;10.98;;;10.07;;
11731;SDS011;5922;53.734;10.258;2023-06-19T12:09:07;11.32;;;10.23;;
11731;SDS011;5922;53.734;10.258;2023-06-19T12:11:36;10.90;;;9.90;;
11731;SDS011;5922;53.734;10.258;2023-06-19T12:14:04;11.32;;;10.32;;
11731;SDS011;5922;53.734;10.258;2023-06-19T12:16:31;11.23;;;10.07;;
11731;SDS011;5922;53.734;10.258;2023-06-19T12:19:00;10.80;;;9.77;;
11731;SDS011;5922;53.734;10.258;2023-06-19T12:21:27;11.63;;;10.52;;
11731;SDS011;5922;53.734;10.258;2023-06-19T12:23:54;13.90;;;10.50;;
11731;SDS011;5922;53.734;10.258;2023-06-19T12:26:24;11.10;;;10.20;;
11731;SDS011;5922;53.734;10.258;2023-06-19T12:28:53;10.60;;;9.65;;
11731;SDS011;5922;53.734;10.258;2023-06-19T12:31:21;10.40;;;9.48;;
11731;SDS011;5922;53.734;10.258;2023-06-19T12:33:48;11.10;;;10.00;;
11731;SDS011;5922;53.734;10.258;2023-06-19T12:36:19;10.75;;;9.57;;
11731;SDS011;5922;53.734;10.258;2023-06-19T12:38:47;13.75;;;9.45;;
11731;SDS011;5922;53.734;10.258;2023-06-19T12:41:14;13.48;;;10.00;;
11731;SDS011;5922;53.734;10.258;2023-06-19T12:43:42;13.50;;;10.25;;
11731;SDS011;5922;53.734;10.258;2023-06-19T12:46:09;11.80;;;10.10;;
11731;SDS011;5922;53.734;10.258;2023-06-19T12:48:37;12.05;;;10.15;;
11731;SDS011;5922;53.734;10.258;2023-06-19T12:51:06;11.73;;;10.63;;
11731;SDS011;5922;53.734;10.258;2023-06-19T12:53:35;14.48;;;9.95;;
11731;SDS011;5922;53.734;10.258;2023-06-19T12:56:02;10.52;;;9.63;;
11731;SDS011;5922;53.734;10.258;2023-06-19T12:58:32;11.82;;;9.93;;
11731;SDS011;5922;53.734;10.258;2023-06-19T13:01:01;10.77;;;9.68;;
11731;SDS011;5922;53.734;10.258;2023-06-19T13:03:28;11.88;;;9.45;;
11731;SDS011;5922;53.734;10.258;2023-06-19T13:05:56;10.30;;;9.30;;
11731;SDS011;5922;53.734;10.258;2023-06-19T13:08:35;9.85;;;8.93;;
11731;SDS011;5922;53.734;10.258;2023-06-19T13:11:03;11.68;;;7.80;;
11731;SDS011;5922;53.734;10.258;2023-06-19T13:13:30;8.00;;;7.28;;
11731;SDS011;5922;53.734;10.258;2023-06-19T13:16:00;9.05;;;7.03;;
11731;SDS011;5922;53.734;10.258;2023-06-19T13:18:27;8.40;;;7.50;;
11731;SDS011;5922;53.734;10.258;2023-06-19T13:20:55;8.82;;;7.28;;
11731;SDS011;5922;53.734;10.258;2023-06-19T13:23:25;8.45;;;7.63;;
11731;SDS011;5922;53.734;10.258;2023-06-19T13:25:54;7.90;;;7.20;;
11731;SDS011;5922;53.734;10.258;2023-06-19T13:30:58;9.07;;;7.25;;
11731;SDS011;5922;53.734;10.258;2023-06-19T13:33:25;8.85;;;7.40;;
11731;SDS011;5922;53.734;10.258;2023-06-19T13:35:53;8.20;;;7.35;;
11731;SDS011;5922;53.734;10.258;2023-06-19T13:38:20;7.82;;;7.03;;
11731;SDS011;5922;53.734;10.258;2023-06-19T13:40:47;7.93;;;7.13;;
11731;SDS011;5922;53.734;10.258;2023-06-19T13:43:16;9.07;;;7.38;;
11731;SDS011;5922;53.734;10.258;2023-06-19T13:45:44;7.90;;;6.43;;
11731;SDS011;5922;53.734;10.258;2023-06-19T13:48:12;9.32;;;7.35;;
11731;SDS011;5922;53.734;10.258;2023-06-19T13:50:40;9.68;;;7.10;;
11731;SDS011;5922;53.734;10.258;2023-06-19T13:53:07;8.05;;;6.72;;
11731;SDS011;5922;53.734;10.258;2023-06-19T13:55:34;11.82;;;7.32;;
11731;SDS011;5922;53.734;10.258;2023-06-19T13:58:02;11.90;;;6.72;;
11731;SDS011;5922;53.734;10.258;2023-06-19T14:00:30;11.52;;;7.53;;
11731;SDS011;5922;53.734;10.258;2023-06-19T14:02:58;9.30;;;6.90;;
11731;SDS011;5922;53.734;10.258;2023-06-19T14:05:25;7.50;;;6.60;;
11731;SDS011;5922;53.734;10.258;2023-06-19T14:07:55;12.52;;;7.30;;
11731;SDS011;5922;53.734;10.258;2023-06-19T14:10:23;9.60;;;7.60;;
11731;SDS011;5922;53.734;10.258;2023-06-19T14:12:50;10.45;;;7.75;;
11731;SDS011;5922;53.734;10.258;2023-06-19T14:15:17;10.38;;;7.85;;
11731;SDS011;5922;53.734;10.258;2023-06-19T14:17:46;7.95;;;7.15;;
11731;SDS011;5922;53.734;10.258;2023-06-19T14:20:13;10.48;;;7.75;;
11731;SDS011;5922;53.734;10.258;2023-06-19T14:22:41;9.98;;;6.38;;
11731;SDS011;5922;53.734;10.258;2023-06-19T14:25:08;6.78;;;6.18;;
11731;SDS011;5922;53.734;10.258;2023-06-19T14:27:35;6.63;;;5.85;;
11731;SDS011;5922;53.734;10.258;2023-06-19T14:30:03;8.25;;;6.05;;
11731;SDS011;5922;53.734;10.258;2023-06-19T14:32:33;6.68;;;6.07;;
11731;SDS011;5922;53.734;10.258;2023-06-19T14:35:01;6.45;;;5.70;;
11731;SDS011;5922;53.734;10.258;2023-06-19T14:37:29;8.95;;;5.93;;
11731;SDS011;5922;53.734;10.258;2023-06-19T14:39:56;6.13;;;5.60;;
11731;SDS011;5922;53.734;10.258;2023-06-19T14:42:23;8.43;;;7.65;;
11731;SDS011;5922;53.734;10.258;2023-06-19T14:44:51;7.38;;;6.68;;
11731;SDS011;5922;53.734;10.258;2023-06-19T14:47:18;10.00;;;6.85;;
11731;SDS011;5922;53.734;10.258;2023-06-19T14:49:45;7.70;;;6.93;;
11731;SDS011;5922;53.734;10.258;2023-06-19T14:52:14;7.22;;;6.28;;
11731;SDS011;5922;53.734;10.258;2023-06-19T14:54:42;8.10;;;7.05;;
11731;SDS011;5922;53.734;10.258;2023-06-19T14:57:09;7.13;;;6.03;;
11731;SDS011;5922;53.734;10.258;2023-06-19T14:59:36;6.40;;;5.80;;
11731;SDS011;5922;53.734;10.258;2023-06-19T15:02:04;8.82;;;6.07;;
11731;SDS011;5922;53.734;10.258;2023-06-19T15:04:32;6.32;;;5.22;;
11731;SDS011;5922;53.734;10.258;2023-06-19T15:07:00;7.88;;;4.90;;
11731;SDS011;5922;53.734;10.258;2023-06-19T15:09:28;5.28;;;4.78;;
11731;SDS011;5922;53.734;10.258;2023-06-19T15:11:56;6.28;;;5.13;;
11731;SDS011;5922;53.734;10.258;2023-06-19T15:14:24;6.03;;;5.38;;
11731;SDS011;5922;53.734;10.258;2023-06-19T15:16:51;5.72;;;5.13;;
11731;SDS011;5922;53.734;10.258;2023-06-19T15:19:18;7.88;;;5.32;;